sensor_id;sensor_type;location;lat;lon;timestamp;P1;durP1;ratioP1;P2;durP2;ratioP2
66437;SDS011;54537;47.972;11.662;2023-07-16T07:07:10;4.45;;;2.63;;
66437;SDS011;54537;47.972;11.662;2023-07-16T07:09:36;4.70;;;2.50;;
66437;SDS011;54537;47.972;11.662;2023-07-16T07:12:03;4.22;;;2.47;;
66437;SDS011;54537;47.972;11.662;2023-07-16T07:14:30;4.60;;;2.70;;
66437;SDS011;54537;47.972;11.662;2023-07-16T07:16:57;5.00;;;2.63;;
66437;SDS011;54537;47.972;11.662;2023-07-16T07:19:23;4.15;;;2.28;;
66437;SDS011;54537;47.972;11.662;2023-07-16T07:21:51;4.13;;;2.20;;
66437;SDS011;54537;47.972;11.662;2023-07-16T07:24:17;4.72;;;2.20;;
66437;SDS011;54537;47.972;11.662;2023-07-16T07:26:44;4.72;;;2.15;;
66437;SDS011;54537;47.972;11.662;2023-07-16T07:29:11;4.07;;;2.00;;
66437;SDS011;54537;47.972;11.662;2023-07-16T07:31:38;3.35;;;1.77;;
66437;SDS011;54537;47.972;11.662;2023-07-16T07:34:05;2.97;;;1.80;;
66437;SDS011;54537;47.972;11.662;2023-07-16T07:36:31;3.97;;;2.10;;
66437;SDS011;54537;47.972;11.662;2023-07-16T07:38:59;6.53;;;1.75;;
66437;SDS011;54537;47.972;11.662;2023-07-16T07:41:26;5.55;;;2.10;;
66437;SDS011;54537;47.972;11.662;2023-07-16T07:43:52;3.30;;;1.98;;
66437;SDS011;54537;47.972;11.662;2023-07-16T07:46:19;3.30;;;1.80;;
66437;SDS011;54537;47.972;11.662;2023-07-16T07:48:45;3.08;;;2.00;;
66437;SDS011;54537;47.972;11.662;2023-07-16T07:51:12;6.60;;;2.17;;
66437;SDS011;54537;47.972;11.662;2023-07-16T07:53:39;4.30;;;2.00;;
66437;SDS011;54537;47.972;11.662;2023-07-16T07:56:07;3.00;;;1.50;;
66437;SDS011;54537;47.972;11.662;2023-07-16T07:58:33;3.35;;;1.60;;
66437;SDS011;54537;47.972;11.662;2023-07-16T08:01:03;3.80;;;1.80;;
66437;SDS011;54537;47.972;11.662;2023-07-16T08:03:30;3.47;;;2.10;;
66437;SDS011;54537;47.972;11.662;2023-07-16T08:05:57;3.55;;;1.83;;
66437;SDS011;54537;47.972;11.662;2023-07-16T08:08:23;3.85;;;2.13;;
66437;SDS011;54537;47.972;11.662;2023-07-16T08:10:50;3.28;;;1.55;;
66437;SDS011;54537;47.972;11.662;2023-07-16T08:13:18;1.92;;;1.50;;
66437;SDS011;54537;47.972;11.662;2023-07-16T08:15:44;3.45;;;1.60;;
66437;SDS011;54537;47.972;11.662;2023-07-16T08:18:12;3.33;;;1.65;;
66437;SDS011;54537;47.972;11.662;2023-07-16T08:20:39;4.95;;;1.80;;
66437;SDS011;54537;47.972;11.662;2023-07-16T08:23:06;3.53;;;1.80;;
66437;SDS011;54537;47.972;11.662;2023-07-16T08:25:32;3.97;;;1.70;;
66437;SDS011;54537;47.972;11.662;2023-07-16T08:27:58;2.70;;;1.63;;
66437;SDS011;54537;47.972;11.662;2023-07-16T08:30:29;2.80;;;1.42;;
66437;SDS011;54537;47.972;11.662;2023-07-16T08:32:55;2.10;;;1.50;;
66437;SDS011;54537;47.972;11.662;2023-07-16T08:35:21;3.03;;;1.67;;
66437;SDS011;54537;47.972;11.662;2023-07-16T08:37:48;3.38;;;1.40;;
66437;SDS011;54537;47.972;11.662;2023-07-16T08:40:14;2.75;;;1.30;;
66437;SDS011;54537;47.972;11.662;2023-07-16T08:42:42;2.63;;;1.20;;
66437;SDS011;54537;47.972;11.662;2023-07-16T08:45:10;3.42;;;1.50;;
66437;SDS011;54537;47.972;11.662;2023-07-16T08:47:38;2.60;;;1.70;;
66437;SDS011;54537;47.972;11.662;2023-07-16T08:50:05;3.13;;;1.77;;
66437;SDS011;54537;47.972;11.662;2023-07-16T08:52:32;5.18;;;1.55;;
66437;SDS011;54537;47.972;11.662;2023-07-16T08:54:59;3.97;;;1.60;;
66437;SDS011;54537;47.972;11.662;2023-07-16T08:57:25;2.72;;;1.80;;
66437;SDS011;54537;47.972;11.662;2023-07-16T08:59:53;3.25;;;1.92;;
66437;SDS011;54537;47.972;11.662;2023-07-16T09:02:20;3.85;;;1.70;;
66437;SDS011;54537;47.972;11.662;2023-07-16T09:04:48;3.58;;;1.70;;
66437;SDS011;54537;47.972;11.662;2023-07-16T09:07:16;2.33;;;1.50;;
66437;SDS011;54537;47.972;11.662;2023-07-16T09:09:42;2.65;;;1.55;;
66437;SDS011;54537;47.972;11.662;2023-07-16T09:12:11;2.83;;;1.55;;
66437;SDS011;54537;47.972;11.662;2023-07-16T09:14:37;3.50;;;1.50;;
66437;SDS011;54537;47.972;11.662;2023-07-16T09:17:04;3.00;;;1.50;;
66437;SDS011;54537;47.972;11.662;2023-07-16T09:19:31;2.50;;;1.60;;
66437;SDS011;54537;47.972;11.662;2023-07-16T09:21:59;2.53;;;1.40;;
66437;SDS011;54537;47.972;11.662;2023-07-16T09:24:26;3.47;;;1.58;;
66437;SDS011;54537;47.972;11.662;2023-07-16T09:26:53;3.63;;;1.55;;
66437;SDS011;54537;47.972;11.662;2023-07-16T09:29:22;2.47;;;1.48;;
66437;SDS011;54537;47.972;11.662;2023-07-16T09:31:54;1.55;;;1.10;;
66437;SDS011;54537;47.972;11.662;2023-07-16T09:34:21;1.92;;;1.00;;
66437;SDS011;54537;47.972;11.662;2023-07-16T09:36:48;1.58;;;1.10;;
66437;SDS011;54537;47.972;11.662;2023-07-16T09:39:17;2.28;;;1.30;;
66437;SDS011;54537;47.972;11.662;2023-07-16T09:41:44;2.03;;;1.30;;
66437;SDS011;54537;47.972;11.662;2023-07-16T09:44:11;2.03;;;1.27;;
66437;SDS011;54537;47.972;11.662;2023-07-16T09:46:39;2.78;;;1.30;;
66437;SDS011;54537;47.972;11.662;2023-07-16T09:49:06;2.67;;;1.40;;
66437;SDS011;54537;47.972;11.662;2023-07-16T09:51:32;2.15;;;1.23;;
66437;SDS011;54537;47.972;11.662;2023-07-16T09:54:01;2.25;;;1.50;;
66437;SDS011;54537;47.972;11.662;2023-07-16T09:56:32;4.15;;;1.40;;
66437;SDS011;54537;47.972;11.662;2023-07-16T09:59:01;4.15;;;1.65;;
66437;SDS011;54537;47.972;11.662;2023-07-16T10:01:28;4.55;;;1.40;;
66437;SDS011;54537;47.972;11.662;2023-07-16T10:03:55;2.60;;;1.30;;
66437;SDS011;54537;47.972;11.662;2023-07-16T10:06:22;2.60;;;1.40;;
66437;SDS011;54537;47.972;11.662;2023-07-16T10:08:48;2.97;;;1.30;;
66437;SDS011;54537;47.972;11.662;2023-07-16T10:11:16;2.42;;;1.10;;
66437;SDS011;54537;47.972;11.662;2023-07-16T10:13:44;2.10;;;1.10;;
66437;SDS011;54537;47.972;11.662;2023-07-16T10:16:19;1.92;;;1.30;;
66437;SDS011;54537;47.972;11.662;2023-07-16T10:18:50;1.95;;;1.30;;
66437;SDS011;54537;47.972;11.662;2023-07-16T10:21:22;2.53;;;1.15;;
66437;SDS011;54537;47.972;11.662;2023-07-16T10:26:26;1.88;;;1.10;;
66437;SDS011;54537;47.972;11.662;2023-07-16T10:28:54;2.13;;;1.17;;
66437;SDS011;54537;47.972;11.662;2023-07-16T10:31:21;1.52;;;1.20;;
66437;SDS011;54537;47.972;11.662;2023-07-16T10:33:58;1.95;;;1.30;;
66437;SDS011;54537;47.972;11.662;2023-07-16T10:36:25;2.70;;;1.40;;
66437;SDS011;54537;47.972;11.662;2023-07-16T10:38:52;2.33;;;1.20;;
66437;SDS011;54537;47.972;11.662;2023-07-16T10:41:18;2.95;;;1.30;;
66437;SDS011;54537;47.972;11.662;2023-07-16T10:43:45;2.58;;;1.30;;
66437;SDS011;54537;47.972;11.662;2023-07-16T10:46:13;1.90;;;1.10;;
66437;SDS011;54537;47.972;11.662;2023-07-16T10:48:45;1.65;;;1.45;;
66437;SDS011;54537;47.972;11.662;2023-07-16T10:51:13;1.77;;;1.42;;
66437;SDS011;54537;47.972;11.662;2023-07-16T10:53:40;2.10;;;1.42;;
66437;SDS011;54537;47.972;11.662;2023-07-16T10:56:07;2.10;;;1.38;;
66437;SDS011;54537;47.972;11.662;2023-07-16T10:58:35;3.38;;;1.58;;
66437;SDS011;54537;47.972;11.662;2023-07-16T11:01:02;3.03;;;1.60;;
66437;SDS011;54537;47.972;11.662;2023-07-16T11:03:30;2.13;;;1.50;;
66437;SDS011;54537;47.972;11.662;2023-07-16T11:05:56;3.33;;;1.70;;
66437;SDS011;54537;47.972;11.662;2023-07-16T11:08:23;4.70;;;1.58;;
66437;SDS011;54537;47.972;11.662;2023-07-16T11:10:54;2.80;;;1.60;;
66437;SDS011;54537;47.972;11.662;2023-07-16T11:13:24;2.80;;;1.60;;
66437;SDS011;54537;47.972;11.662;2023-07-16T11:15:51;3.88;;;1.55;;
66437;SDS011;54537;47.972;11.662;2023-07-16T11:18:18;2.45;;;1.40;;
66437;SDS011;54537;47.972;11.662;2023-07-16T11:20:46;2.90;;;1.63;;
66437;SDS011;54537;47.972;11.662;2023-07-16T11:23:16;2.55;;;1.55;;
66437;SDS011;54537;47.972;11.662;2023-07-16T11:25:45;2.03;;;1.60;;
66437;SDS011;54537;47.972;11.662;2023-07-16T11:28:12;3.45;;;1.50;;
66437;SDS011;54537;47.972;11.662;2023-07-16T11:30:38;2.90;;;1.75;;
66437;SDS011;54537;47.972;11.662;2023-07-16T11:33:09;2.78;;;1.70;;
66437;SDS011;54537;47.972;11.662;2023-07-16T11:35:36;2.75;;;1.70;;
66437;SDS011;54537;47.972;11.662;2023-07-16T11:38:05;3.08;;;1.65;;
66437;SDS011;54537;47.972;11.662;2023-07-16T11:40:33;3.72;;;1.80;;
66437;SDS011;54537;47.972;11.662;2023-07-16T11:43:07;8.52;;;2.45;;
66437;SDS011;54537;47.972;11.662;2023-07-16T11:45:34;3.13;;;1.75;;
66437;SDS011;54537;47.972;11.662;2023-07-16T11:48:01;8.60;;;2.47;;
66437;SDS011;54537;47.972;11.662;2023-07-16T11:50:28;3.67;;;2.30;;
66437;SDS011;54537;47.972;11.662;2023-07-16T11:52:56;4.57;;;2.42;;
66437;SDS011;54537;47.972;11.662;2023-07-16T11:55:26;3.15;;;1.90;;
66437;SDS011;54537;47.972;11.662;2023-07-16T11:57:52;3.83;;;2.42;;
66437;SDS011;54537;47.972;11.662;2023-07-16T12:00:21;3.78;;;2.08;;
66437;SDS011;54537;47.972;11.662;2023-07-16T12:02:48;3.97;;;2.15;;
66437;SDS011;54537;47.972;11.662;2023-07-16T12:05:17;2.90;;;1.95;;
66437;SDS011;54537;47.972;11.662;2023-07-16T12:07:43;5.00;;;2.60;;
66437;SDS011;54537;47.972;11.662;2023-07-16T12:10:10;4.95;;;2.30;;
66437;SDS011;54537;47.972;11.662;2023-07-16T12:12:38;3.85;;;2.15;;
66437;SDS011;54537;47.972;11.662;2023-07-16T12:15:05;4.15;;;2.00;;
66437;SDS011;54537;47.972;11.662;2023-07-16T12:17:32;4.20;;;2.08;;
66437;SDS011;54537;47.972;11.662;2023-07-16T12:19:58;3.83;;;2.08;;
66437;SDS011;54537;47.972;11.662;2023-07-16T12:22:25;4.05;;;2.28;;
66437;SDS011;54537;47.972;11.662;2023-07-16T12:24:51;3.80;;;2.40;;
66437;SDS011;54537;47.972;11.662;2023-07-16T12:27:18;5.03;;;1.90;;
66437;SDS011;54537;47.972;11.662;2023-07-16T12:29:46;4.60;;;2.38;;
66437;SDS011;54537;47.972;11.662;2023-07-16T12:32:13;3.63;;;2.20;;
66437;SDS011;54537;47.972;11.662;2023-07-16T12:34:40;4.10;;;2.25;;
66437;SDS011;54537;47.972;11.662;2023-07-16T12:37:06;5.38;;;2.63;;
66437;SDS011;54537;47.972;11.662;2023-07-16T12:39:33;4.20;;;2.20;;
66437;SDS011;54537;47.972;11.662;2023-07-16T12:41:59;3.63;;;2.20;;
66437;SDS011;54537;47.972;11.662;2023-07-16T12:44:26;4.68;;;2.85;;
66437;SDS011;54537;47.972;11.662;2023-07-16T12:46:53;4.40;;;2.10;;
66437;SDS011;54537;47.972;11.662;2023-07-16T12:49:20;4.32;;;2.17;;
66437;SDS011;54537;47.972;11.662;2023-07-16T12:51:46;6.25;;;2.30;;
66437;SDS011;54537;47.972;11.662;2023-07-16T12:54:13;4.93;;;2.22;;
66437;SDS011;54537;47.972;11.662;2023-07-16T12:56:39;3.53;;;2.35;;
66437;SDS011;54537;47.972;11.662;2023-07-16T12:59:06;4.15;;;2.47;;
66437;SDS011;54537;47.972;11.662;2023-07-16T13:01:32;3.83;;;2.20;;
66437;SDS011;54537;47.972;11.662;2023-07-16T13:04:01;3.80;;;2.10;;
66437;SDS011;54537;47.972;11.662;2023-07-16T13:06:27;3.22;;;2.03;;
66437;SDS011;54537;47.972;11.662;2023-07-16T13:08:54;4.00;;;2.25;;
66437;SDS011;54537;47.972;11.662;2023-07-16T13:11:20;3.72;;;2.33;;
66437;SDS011;54537;47.972;11.662;2023-07-16T13:13:47;3.95;;;2.38;;
66437;SDS011;54537;47.972;11.662;2023-07-16T13:16:13;4.03;;;2.00;;
66437;SDS011;54537;47.972;11.662;2023-07-16T13:18:40;3.22;;;2.00;;
66437;SDS011;54537;47.972;11.662;2023-07-16T13:21:08;3.30;;;2.30;;
66437;SDS011;54537;47.972;11.662;2023-07-16T13:23:34;4.13;;;2.13;;
66437;SDS011;54537;47.972;11.662;2023-07-16T13:26:01;3.67;;;2.22;;
66437;SDS011;54537;47.972;11.662;2023-07-16T13:28:28;5.25;;;2.63;;
66437;SDS011;54537;47.972;11.662;2023-07-16T13:30:54;5.50;;;2.45;;
66437;SDS011;54537;47.972;11.662;2023-07-16T13:33:21;3.85;;;2.30;;
66437;SDS011;54537;47.972;11.662;2023-07-16T13:35:48;4.38;;;2.13;;
66437;SDS011;54537;47.972;11.662;2023-07-16T13:38:15;3.28;;;2.30;;
66437;SDS011;54537;47.972;11.662;2023-07-16T13:40:42;7.80;;;2.35;;
66437;SDS011;54537;47.972;11.662;2023-07-16T13:43:09;5.55;;;2.35;;
66437;SDS011;54537;47.972;11.662;2023-07-16T13:45:35;4.75;;;2.30;;
66437;SDS011;54537;47.972;11.662;2023-07-16T13:48:02;3.88;;;2.10;;
66437;SDS011;54537;47.972;11.662;2023-07-16T13:50:28;4.72;;;2.30;;
66437;SDS011;54537;47.972;11.662;2023-07-16T13:52:55;3.63;;;2.30;;
66437;SDS011;54537;47.972;11.662;2023-07-16T13:55:23;3.38;;;2.20;;
66437;SDS011;54537;47.972;11.662;2023-07-16T13:57:49;4.72;;;2.55;;
66437;SDS011;54537;47.972;11.662;2023-07-16T14:00:16;3.08;;;1.95;;
66437;SDS011;54537;47.972;11.662;2023-07-16T14:02:42;4.68;;;2.35;;
66437;SDS011;54537;47.972;11.662;2023-07-16T14:05:09;5.63;;;2.60;;
66437;SDS011;54537;47.972;11.662;2023-07-16T14:07:36;3.55;;;2.35;;
66437;SDS011;54537;47.972;11.662;2023-07-16T14:10:03;4.00;;;2.22;;
66437;SDS011;54537;47.972;11.662;2023-07-16T14:12:31;4.57;;;2.30;;
66437;SDS011;54537;47.972;11.662;2023-07-16T14:14:58;5.15;;;2.63;;
66437;SDS011;54537;47.972;11.662;2023-07-16T14:17:25;3.30;;;2.25;;
66437;SDS011;54537;47.972;11.662;2023-07-16T14:19:51;3.65;;;2.20;;
66437;SDS011;54537;47.972;11.662;2023-07-16T14:22:18;4.05;;;2.40;;
66437;SDS011;54537;47.972;11.662;2023-07-16T14:24:44;5.38;;;2.60;;
66437;SDS011;54537;47.972;11.662;2023-07-16T14:27:15;4.22;;;2.45;;
66437;SDS011;54537;47.972;11.662;2023-07-16T14:29:45;5.95;;;2.50;;
66437;SDS011;54537;47.972;11.662;2023-07-16T14:32:12;5.88;;;2.20;;
66437;SDS011;54537;47.972;11.662;2023-07-16T14:34:39;4.60;;;2.72;;
66437;SDS011;54537;47.972;11.662;2023-07-16T14:37:05;6.28;;;2.63;;
66437;SDS011;54537;47.972;11.662;2023-07-16T14:39:32;6.50;;;2.67;;
66437;SDS011;54537;47.972;11.662;2023-07-16T14:41:58;5.07;;;2.40;;
66437;SDS011;54537;47.972;11.662;2023-07-16T14:44:28;5.90;;;2.40;;
66437;SDS011;54537;47.972;11.662;2023-07-16T14:46:56;4.47;;;2.15;;
66437;SDS011;54537;47.972;11.662;2023-07-16T14:49:22;5.95;;;2.30;;
66437;SDS011;54537;47.972;11.662;2023-07-16T14:51:49;4.00;;;2.00;;
66437;SDS011;54537;47.972;11.662;2023-07-16T14:54:16;3.42;;;2.22;;
66437;SDS011;54537;47.972;11.662;2023-07-16T14:56:43;5.88;;;2.22;;
66437;SDS011;54537;47.972;11.662;2023-07-16T14:59:09;4.25;;;2.28;;
66437;SDS011;54537;47.972;11.662;2023-07-16T15:01:36;3.03;;;2.00;;
66437;SDS011;54537;47.972;11.662;2023-07-16T15:04:05;3.42;;;1.90;;
66437;SDS011;54537;47.972;11.662;2023-07-16T15:06:31;4.10;;;2.03;;
66437;SDS011;54537;47.972;11.662;2023-07-16T15:08:58;4.07;;;2.10;;
66437;SDS011;54537;47.972;11.662;2023-07-16T15:11:25;3.72;;;2.00;;
66437;SDS011;54537;47.972;11.662;2023-07-16T15:13:51;2.97;;;1.90;;
66437;SDS011;54537;47.972;11.662;2023-07-16T15:16:18;5.55;;;2.08;;
66437;SDS011;54537;47.972;11.662;2023-07-16T15:18:44;8.68;;;2.15;;
66437;SDS011;54537;47.972;11.662;2023-07-16T15:21:12;4.05;;;2.05;;
66437;SDS011;54537;47.972;11.662;2023-07-16T15:23:43;4.50;;;2.42;;
66437;SDS011;54537;47.972;11.662;2023-07-16T15:28:37;4.75;;;2.35;;
66437;SDS011;54537;47.972;11.662;2023-07-16T15:31:06;3.60;;;2.15;;
66437;SDS011;54537;47.972;11.662;2023-07-16T15:33:33;4.03;;;2.05;;
66437;SDS011;54537;47.972;11.662;2023-07-16T15:35:59;3.80;;;2.05;;
66437;SDS011;54537;47.972;11.662;2023-07-16T15:38:28;4.38;;;2.50;;
66437;SDS011;54537;47.972;11.662;2023-07-16T15:40:54;5.53;;;2.45;;
66437;SDS011;54537;47.972;11.662;2023-07-16T15:43:21;3.78;;;2.28;;
66437;SDS011;54537;47.972;11.662;2023-07-16T15:45:48;4.50;;;2.17;;
66437;SDS011;54537;47.972;11.662;2023-07-16T15:48:14;3.25;;;2.08;;
66437;SDS011;54537;47.972;11.662;2023-07-16T15:50:42;9.85;;;2.38;;
66437;SDS011;54537;47.972;11.662;2023-07-16T15:53:09;4.68;;;2.30;;
66437;SDS011;54537;47.972;11.662;2023-07-16T15:55:38;5.47;;;2.30;;
66437;SDS011;54537;47.972;11.662;2023-07-16T15:58:04;5.78;;;2.20;;
66437;SDS011;54537;47.972;11.662;2023-07-16T16:00:31;3.90;;;2.28;;
66437;SDS011;54537;47.972;11.662;2023-07-16T16:02:57;4.80;;;2.58;;
66437;SDS011;54537;47.972;11.662;2023-07-16T16:05:26;7.93;;;2.38;;
66437;SDS011;54537;47.972;11.662;2023-07-16T16:08:12;7.22;;;2.20;;
66437;SDS011;54537;47.972;11.662;2023-07-16T16:10:41;4.07;;;2.53;;
66437;SDS011;54537;47.972;11.662;2023-07-16T16:13:08;3.25;;;2.08;;
66437;SDS011;54537;47.972;11.662;2023-07-16T16:15:34;4.60;;;2.28;;
66437;SDS011;54537;47.972;11.662;2023-07-16T16:18:01;4.15;;;2.30;;
66437;SDS011;54537;47.972;11.662;2023-07-16T16:20:28;5.15;;;2.30;;
66437;SDS011;54537;47.972;11.662;2023-07-16T16:22:54;4.03;;;2.25;;
66437;SDS011;54537;47.972;11.662;2023-07-16T16:25:21;5.30;;;2.20;;
66437;SDS011;54537;47.972;11.662;2023-07-16T16:27:48;6.28;;;2.60;;
66437;SDS011;54537;47.972;11.662;2023-07-16T16:30:15;4.68;;;2.47;;
66437;SDS011;54537;47.972;11.662;2023-07-16T16:32:41;4.35;;;2.22;;
66437;SDS011;54537;47.972;11.662;2023-07-16T16:35:08;3.92;;;2.40;;
66437;SDS011;54537;47.972;11.662;2023-07-16T16:37:35;4.57;;;2.60;;
66437;SDS011;54537;47.972;11.662;2023-07-16T16:40:01;5.95;;;2.70;;
66437;SDS011;54537;47.972;11.662;2023-07-16T16:42:31;4.13;;;2.40;;
66437;SDS011;54537;47.972;11.662;2023-07-16T16:44:59;4.60;;;2.40;;
66437;SDS011;54537;47.972;11.662;2023-07-16T16:47:30;5.40;;;2.55;;
66437;SDS011;54537;47.972;11.662;2023-07-16T16:49:56;4.68;;;2.25;;
66437;SDS011;54537;47.972;11.662;2023-07-16T16:52:23;5.25;;;2.40;;
66437;SDS011;54537;47.972;11.662;2023-07-16T16:54:49;3.40;;;2.03;;
66437;SDS011;54537;47.972;11.662;2023-07-16T16:57:16;6.25;;;2.20;;
66437;SDS011;54537;47.972;11.662;2023-07-16T16:59:43;6.72;;;2.20;;
66437;SDS011;54537;47.972;11.662;2023-07-16T17:02:11;4.63;;;2.70;;
66437;SDS011;54537;47.972;11.662;2023-07-16T17:04:38;4.57;;;2.47;;
66437;SDS011;54537;47.972;11.662;2023-07-16T17:07:07;4.30;;;2.30;;
66437;SDS011;54537;47.972;11.662;2023-07-16T17:09:34;5.00;;;2.28;;
66437;SDS011;54537;47.972;11.662;2023-07-16T17:12:01;4.95;;;2.50;;
66437;SDS011;54537;47.972;11.662;2023-07-16T17:14:27;4.50;;;2.40;;
66437;SDS011;54537;47.972;11.662;2023-07-16T17:16:54;4.15;;;2.47;;
66437;SDS011;54537;47.972;11.662;2023-07-16T17:19:23;5.00;;;2.30;;
66437;SDS011;54537;47.972;11.662;2023-07-16T17:21:49;3.90;;;2.00;;
66437;SDS011;54537;47.972;11.662;2023-07-16T17:24:16;5.57;;;2.40;;
66437;SDS011;54537;47.972;11.662;2023-07-16T17:26:42;5.57;;;2.38;;
66437;SDS011;54537;47.972;11.662;2023-07-16T17:29:09;3.47;;;2.17;;
66437;SDS011;54537;47.972;11.662;2023-07-16T17:31:35;4.18;;;2.20;;
66437;SDS011;54537;47.972;11.662;2023-07-16T17:34:02;5.20;;;2.55;;
66437;SDS011;54537;47.972;11.662;2023-07-16T17:36:30;4.75;;;2.83;;
66437;SDS011;54537;47.972;11.662;2023-07-16T17:38:57;5.65;;;3.30;;
66437;SDS011;54537;47.972;11.662;2023-07-16T17:41:24;6.15;;;3.03;;
66437;SDS011;54537;47.972;11.662;2023-07-16T17:43:51;5.13;;;2.90;;
66437;SDS011;54537;47.972;11.662;2023-07-16T17:46:17;4.47;;;2.40;;
66437;SDS011;54537;47.972;11.662;2023-07-16T17:48:44;4.85;;;2.70;;
66437;SDS011;54537;47.972;11.662;2023-07-16T17:51:11;4.40;;;2.47;;
66437;SDS011;54537;47.972;11.662;2023-07-16T17:53:39;5.15;;;2.45;;
66437;SDS011;54537;47.972;11.662;2023-07-16T17:56:06;5.30;;;2.50;;
66437;SDS011;54537;47.972;11.662;2023-07-16T17:58:32;5.80;;;2.80;;
66437;SDS011;54537;47.972;11.662;2023-07-16T18:00:59;8.90;;;3.05;;
66437;SDS011;54537;47.972;11.662;2023-07-16T18:03:26;4.30;;;2.78;;
66437;SDS011;54537;47.972;11.662;2023-07-16T18:05:52;6.53;;;3.00;;
66437;SDS011;54537;47.972;11.662;2023-07-16T18:08:19;4.80;;;2.92;;
66437;SDS011;54537;47.972;11.662;2023-07-16T18:10:47;6.88;;;2.58;;
66437;SDS011;54537;47.972;11.662;2023-07-16T18:13:14;4.25;;;2.45;;
66437;SDS011;54537;47.972;11.662;2023-07-16T18:15:41;5.22;;;2.60;;
66437;SDS011;54537;47.972;11.662;2023-07-16T18:18:07;4.03;;;2.55;;
66437;SDS011;54537;47.972;11.662;2023-07-16T18:20:34;6.22;;;2.67;;
66437;SDS011;54537;47.972;11.662;2023-07-16T18:23:01;3.92;;;2.45;;
66437;SDS011;54537;47.972;11.662;2023-07-16T18:25:27;6.07;;;2.42;;
66437;SDS011;54537;47.972;11.662;2023-07-16T18:27:55;3.63;;;2.17;;
66437;SDS011;54537;47.972;11.662;2023-07-16T18:30:23;5.22;;;3.00;;
66437;SDS011;54537;47.972;11.662;2023-07-16T18:32:49;4.65;;;2.50;;
66437;SDS011;54537;47.972;11.662;2023-07-16T18:35:16;5.32;;;3.05;;
66437;SDS011;54537;47.972;11.662;2023-07-16T18:37:43;8.30;;;2.67;;
66437;SDS011;54537;47.972;11.662;2023-07-16T18:40:10;10.57;;;3.85;;
66437;SDS011;54537;47.972;11.662;2023-07-16T18:42:37;7.15;;;2.80;;
66437;SDS011;54537;47.972;11.662;2023-07-16T18:45:06;10.73;;;3.53;;
66437;SDS011;54537;47.972;11.662;2023-07-16T18:47:33;7.97;;;3.58;;
66437;SDS011;54537;47.972;11.662;2023-07-16T18:50:00;7.78;;;3.15;;
66437;SDS011;54537;47.972;11.662;2023-07-16T18:52:26;7.45;;;3.20;;
66437;SDS011;54537;47.972;11.662;2023-07-16T18:54:52;7.60;;;3.05;;
66437;SDS011;54537;47.972;11.662;2023-07-16T18:57:20;6.95;;;3.25;;
66437;SDS011;54537;47.972;11.662;2023-07-16T18:59:46;5.35;;;3.20;;
66437;SDS011;54537;47.972;11.662;2023-07-16T19:02:14;6.32;;;2.97;;
66437;SDS011;54537;47.972;11.662;2023-07-16T19:04:41;7.53;;;2.97;;
66437;SDS011;54537;47.972;11.662;2023-07-16T19:07:07;6.18;;;3.08;;
66437;SDS011;54537;47.972;11.662;2023-07-16T19:09:34;5.97;;;2.90;;
66437;SDS011;54537;47.972;11.662;2023-07-16T19:12:00;8.65;;;3.38;;
66437;SDS011;54537;47.972;11.662;2023-07-16T19:14:27;9.20;;;3.85;;
66437;SDS011;54537;47.972;11.662;2023-07-16T19:16:53;11.18;;;4.15;;
66437;SDS011;54537;47.972;11.662;2023-07-16T19:19:21;9.13;;;4.15;;
66437;SDS011;54537;47.972;11.662;2023-07-16T19:21:48;8.95;;;3.92;;
66437;SDS011;54537;47.972;11.662;2023-07-16T19:24:14;11.30;;;3.65;;
66437;SDS011;54537;47.972;11.662;2023-07-16T19:26:41;11.38;;;4.25;;
66437;SDS011;54537;47.972;11.662;2023-07-16T19:29:07;8.27;;;4.28;;
66437;SDS011;54537;47.972;11.662;2023-07-16T19:31:33;7.68;;;4.30;;
66437;SDS011;54537;47.972;11.662;2023-07-16T19:34:00;14.13;;;5.05;;
66437;SDS011;54537;47.972;11.662;2023-07-16T19:36:28;9.45;;;4.40;;
66437;SDS011;54537;47.972;11.662;2023-07-16T19:38:55;10.95;;;4.70;;
66437;SDS011;54537;47.972;11.662;2023-07-16T19:41:21;10.70;;;4.60;;
66437;SDS011;54537;47.972;11.662;2023-07-16T19:43:48;9.82;;;4.05;;
66437;SDS011;54537;47.972;11.662;2023-07-16T19:46:14;10.40;;;4.65;;
66437;SDS011;54537;47.972;11.662;2023-07-16T19:48:41;10.93;;;4.65;;
66437;SDS011;54537;47.972;11.662;2023-07-16T19:51:07;9.85;;;4.53;;
66437;SDS011;54537;47.972;11.662;2023-07-16T19:53:35;11.18;;;4.70;;
66437;SDS011;54537;47.972;11.662;2023-07-16T19:56:01;9.18;;;4.82;;
66437;SDS011;54537;47.972;11.662;2023-07-16T19:58:29;9.32;;;4.90;;
66437;SDS011;54537;47.972;11.662;2023-07-16T20:00:55;12.68;;;4.80;;
66437;SDS011;54537;47.972;11.662;2023-07-16T20:03:22;10.38;;;4.88;;
66437;SDS011;54537;47.972;11.662;2023-07-16T20:05:48;11.45;;;4.82;;
66437;SDS011;54537;47.972;11.662;2023-07-16T20:08:15;9.85;;;5.75;;
66437;SDS011;54537;47.972;11.662;2023-07-16T20:10:44;10.10;;;4.97;;
66437;SDS011;54537;47.972;11.662;2023-07-16T20:13:12;11.02;;;4.88;;
66437;SDS011;54537;47.972;11.662;2023-07-16T20:15:38;9.88;;;5.15;;
66437;SDS011;54537;47.972;11.662;2023-07-16T20:18:05;11.13;;;4.97;;
66437;SDS011;54537;47.972;11.662;2023-07-16T20:20:32;10.07;;;4.72;;
66437;SDS011;54537;47.972;11.662;2023-07-16T20:23:00;7.38;;;4.55;;
66437;SDS011;54537;47.972;11.662;2023-07-16T20:25:26;8.63;;;4.53;;
66437;SDS011;54537;47.972;11.662;2023-07-16T20:27:55;8.07;;;4.45;;
66437;SDS011;54537;47.972;11.662;2023-07-16T20:30:22;10.55;;;4.80;;
66437;SDS011;54537;47.972;11.662;2023-07-16T20:32:48;11.88;;;4.60;;
66437;SDS011;54537;47.972;11.662;2023-07-16T20:35:16;10.00;;;4.85;;
66437;SDS011;54537;47.972;11.662;2023-07-16T20:37:43;8.55;;;4.70;;
66437;SDS011;54537;47.972;11.662;2023-07-16T20:40:09;9.07;;;4.80;;
66437;SDS011;54537;47.972;11.662;2023-07-16T20:42:36;12.18;;;4.82;;
66437;SDS011;54537;47.972;11.662;2023-07-16T20:45:17;11.43;;;5.13;;
66437;SDS011;54537;47.972;11.662;2023-07-16T20:47:46;11.18;;;4.90;;
66437;SDS011;54537;47.972;11.662;2023-07-16T20:50:13;15.13;;;5.28;;
66437;SDS011;54537;47.972;11.662;2023-07-16T20:52:40;21.20;;;6.35;;
66437;SDS011;54537;47.972;11.662;2023-07-16T20:55:08;18.08;;;5.90;;
66437;SDS011;54537;47.972;11.662;2023-07-16T20:57:35;13.38;;;5.82;;
66437;SDS011;54537;47.972;11.662;2023-07-16T21:00:02;15.05;;;5.90;;
66437;SDS011;54537;47.972;11.662;2023-07-16T21:02:35;24.77;;;6.85;;
66437;SDS011;54537;47.972;11.662;2023-07-16T21:05:02;13.27;;;5.65;;
66437;SDS011;54537;47.972;11.662;2023-07-16T21:07:30;11.38;;;5.80;;
66437;SDS011;54537;47.972;11.662;2023-07-16T21:09:57;11.38;;;5.32;;
66437;SDS011;54537;47.972;11.662;2023-07-16T21:12:24;10.43;;;5.97;;
66437;SDS011;54537;47.972;11.662;2023-07-16T21:14:50;12.32;;;5.50;;
66437;SDS011;54537;47.972;11.662;2023-07-16T21:17:17;10.77;;;5.78;;
66437;SDS011;54537;47.972;11.662;2023-07-16T21:19:45;13.02;;;5.60;;
66437;SDS011;54537;47.972;11.662;2023-07-16T21:22:11;10.48;;;5.78;;
66437;SDS011;54537;47.972;11.662;2023-07-16T21:24:38;12.50;;;6.28;;
66437;SDS011;54537;47.972;11.662;2023-07-16T21:27:04;11.18;;;5.25;;
66437;SDS011;54537;47.972;11.662;2023-07-16T21:29:31;10.55;;;5.45;;
66437;SDS011;54537;47.972;11.662;2023-07-16T21:31:57;10.15;;;5.50;;
66437;SDS011;54537;47.972;11.662;2023-07-16T21:34:24;9.38;;;5.05;;
66437;SDS011;54537;47.972;11.662;2023-07-16T21:36:53;12.45;;;5.10;;
66437;SDS011;54537;47.972;11.662;2023-07-16T21:39:19;9.40;;;4.88;;
66437;SDS011;54537;47.972;11.662;2023-07-16T21:41:46;8.45;;;5.00;;
66437;SDS011;54537;47.972;11.662;2023-07-16T21:44:12;10.23;;;5.30;;